Chemical Pioneer — KAFO — position and weather

sailwx.info

Track history (hours):
 
Tides and Currents Weather Stations Pressure Air Temp Water Temp Dewpoint Dewpoint Depression Visibility Wind Speed Wind Dir Waves Ship Positions

Chemical Pioneer

Owner: US Shipping Corp, Edison, NJ. More information available from US FCC via Universal Licensing System and Coast Guard Vessel Documentation Center.

Last reported at 2014-Nov-21 10:32 UTC. Time now 2014-Nov-23 04:45 UTC.
Position N 25°04' W 080°10'.

Type: Tanker. MMSI: 366032000.

Date/timePositionNaut miles runAvg speedWind from/ knotsBaromVisibWave heightAir tempDewpointWater temp
2014-Nov-21 10:32N 25°04' W 080°10'1412.6
2014-Nov-21 09:26N 25°17' W 080°04'1312.5
2014-Nov-21 08:26N 25°29' W 080°01'1112.1
2014-Nov-21 07:33N 25°39' W 080°01'1211.7
2014-Nov-21 06:33N 25°51' W 080°00'1211.8
2014-Nov-21 05:34N 26°03' W 079°59'1211.6
2014-Nov-21 04:34N 26°14' W 079°58'1211.7
2014-Nov-21 03:33N 26°26' W 079°57'1212.2
2014-Nov-21 02:34N 26°38' W 079°56'1211.7
2014-Nov-21 01:34N 26°50' W 079°55'1211.8
2014-Nov-21 00:33N 27°02' W 079°55'  
2014-Nov-17 05:16N 34°13' W 076°21'2613.7
2014-Nov-17 03:21N 34°32' W 075°58'28113.5
2014-Nov-16 06:30N 39°11' W 075°16'1414.7
2014-Nov-16 05:33N 39°22' W 075°28'1313.3
2014-Nov-16 04:33N 39°35' W 075°33'1312.8
2014-Nov-16 03:33N 39°47' W 075°28'1312.8
2014-Nov-16 02:33N 39°52' W 075°13'1 0.0
2014-Nov-15 00:32N 39°52' W 075°14'1313.1
2014-Nov-14 23:33N 39°46' W 075°29'1211.7
2014-Nov-14 22:33N 39°35' W 075°33'2 1.8
2014-Nov-14 21:33N 39°35' W 075°36'0 0.0
2014-Nov-14 20:33N 39°35' W 075°36'0 0.0
2014-Nov-14 19:33N 39°35' W 075°36'0 0.0
2014-Nov-14 18:33N 39°35' W 075°36'0 0.0
2014-Nov-14 17:33N 39°35' W 075°36'0 0.0
2014-Nov-14 16:33N 39°35' W 075°36'0 0.0
2014-Nov-14 15:33N 39°35' W 075°36'0 0.0
2014-Nov-14 14:33N 39°35' W 075°36'0 0.0
2014-Nov-14 12:33N 39°35' W 075°36'0 0.0
2014-Nov-14 11:33N 39°35' W 075°36'0 0.0
2014-Nov-14 10:33N 39°35' W 075°36'0 0.0
2014-Nov-14 09:33N 39°35' W 075°36'0 0.0
2014-Nov-14 08:33N 39°35' W 075°36'0 0.0
2014-Nov-14 07:33N 39°35' W 075°36'0 0.0
2014-Nov-14 06:33N 39°35' W 075°36'0 0.0
2014-Nov-14 05:33N 39°35' W 075°36'0 0.0
2014-Nov-14 04:33N 39°35' W 075°36'0 0.0
2014-Nov-14 03:33N 39°35' W 075°36'0 0.0
2014-Nov-14 02:33N 39°35' W 075°36'0 0.0
2014-Nov-14 01:33N 39°35' W 075°36'0 0.0
2014-Nov-14 00:33N 39°35' W 075°36'0 0.0
2014-Nov-13 23:33N 39°35' W 075°36'0 0.0
2014-Nov-13 22:33N 39°35' W 075°36'0 0.0
2014-Nov-13 21:33N 39°35' W 075°36'0 0.0
2014-Nov-13 20:33N 39°35' W 075°36'0 0.0
2014-Nov-13 19:33N 39°35' W 075°36'0 0.0
2014-Nov-13 18:33N 39°35' W 075°36'0 0.0
2014-Nov-13 17:33N 39°35' W 075°36'0 0.0
2014-Nov-13 16:33N 39°35' W 075°36'0 0.0
2014-Nov-13 15:33N 39°35' W 075°36'0 0.0
2014-Nov-13 14:31N 39°35' W 075°36'0 0.0
2014-Nov-13 13:33N 39°35' W 075°36'0 0.0
2014-Nov-13 12:33N 39°35' W 075°36'0 0.0
2014-Nov-13 11:33N 39°35' W 075°36'0 0.0
2014-Nov-13 10:33N 39°35' W 075°36'0 0.0
2014-Nov-13 09:33N 39°35' W 075°36'0 0.0
2014-Nov-13 08:33N 39°35' W 075°36'0 0.0
2014-Nov-13 07:30N 39°35' W 075°36'0 0.0
2014-Nov-13 06:33N 39°35' W 075°36'0 0.0
2014-Nov-13 05:33N 39°35' W 075°36'0 0.0
2014-Nov-13 04:33N 39°35' W 075°36'0 0.0
2014-Nov-13 03:30N 39°35' W 075°36'0 0.0
2014-Nov-13 02:33N 39°35' W 075°36'0 0.0
2014-Nov-13 01:30N 39°35' W 075°36'0 0.0
2014-Nov-13 00:33N 39°35' W 075°36'0 0.0
2014-Nov-12 23:33N 39°35' W 075°36'0 0.0
2014-Nov-12 22:33N 39°35' W 075°36'0 0.0
2014-Nov-12 21:33N 39°35' W 075°36'4 4.1
2014-Nov-12 20:33N 39°32' W 075°33'7 6.6
2014-Nov-12 19:33N 39°25' W 075°31'1616.4
2014-Nov-12 18:34N 39°13' W 075°17'19 3.0
2014-Nov-12 12:12N 38°55' W 075°08'0 0.3
2014-Nov-12 11:33N 38°55' W 075°08'0 0.0
2014-Nov-12 10:33N 38°55' W 075°08'0 0.0
2014-Nov-12 09:27N 38°55' W 075°08'0 0.0
2014-Nov-12 08:33N 38°55' W 075°08'0 0.0
2014-Nov-12 07:33N 38°55' W 075°08'0 0.2
2014-Nov-12 06:33N 38°55' W 075°08'0 0.0
2014-Nov-12 05:27N 38°55' W 075°08'0 0.0
2014-Nov-12 04:33N 38°55' W 075°08'0 0.0
2014-Nov-12 03:33N 38°55' W 075°08'0 0.0
2014-Nov-12 02:33N 38°55' W 075°08'0 0.0
2014-Nov-12 01:33N 38°55' W 075°08'0 0.0
2014-Nov-12 00:33N 38°55' W 075°08'0 0.2
2014-Nov-11 23:33N 38°55' W 075°08'0 0.0
2014-Nov-11 22:33N 38°55' W 075°08'0 0.0
2014-Nov-11 21:33N 38°55' W 075°08'0 0.0
2014-Nov-11 18:33N 38°55' W 075°08'  
Track history (hours):
 
Tides and Currents Weather Stations Pressure Air Temp Water Temp Dewpoint Dewpoint Depression Visibility Wind Speed Wind Dir Waves Ship Positions

Chemical Pioneer

Owner: US Shipping Corp, Edison, NJ. More information available from US FCC via Universal Licensing System and Coast Guard Vessel Documentation Center.

Last reported at 2014-Nov-21 10:32 UTC. Time now 2014-Nov-23 04:45 UTC.
Position N 25°04' W 080°10'.

Type: Tanker. MMSI: 366032000.

Date/timePositionNaut miles runAvg speedWind from/ knotsBaromVisibWave heightAir tempDewpointWater temp
2014-Nov-21 10:32N 25°04' W 080°10'1412.6
2014-Nov-21 09:26N 25°17' W 080°04'1312.5
2014-Nov-21 08:26N 25°29' W 080°01'1112.1
2014-Nov-21 07:33N 25°39' W 080°01'1211.7
2014-Nov-21 06:33N 25°51' W 080°00'1211.8
2014-Nov-21 05:34N 26°03' W 079°59'1211.6
2014-Nov-21 04:34N 26°14' W 079°58'1211.7
2014-Nov-21 03:33N 26°26' W 079°57'1212.2
2014-Nov-21 02:34N 26°38' W 079°56'1211.7
2014-Nov-21 01:34N 26°50' W 079°55'1211.8
2014-Nov-21 00:33N 27°02' W 079°55'  
2014-Nov-17 05:16N 34°13' W 076°21'2613.7
2014-Nov-17 03:21N 34°32' W 075°58'28113.5
2014-Nov-16 06:30N 39°11' W 075°16'1414.7
2014-Nov-16 05:33N 39°22' W 075°28'1313.3
2014-Nov-16 04:33N 39°35' W 075°33'1312.8
2014-Nov-16 03:33N 39°47' W 075°28'1312.8
2014-Nov-16 02:33N 39°52' W 075°13'1 0.0
2014-Nov-15 00:32N 39°52' W 075°14'1313.1
2014-Nov-14 23:33N 39°46' W 075°29'1211.7
2014-Nov-14 22:33N 39°35' W 075°33'2 1.8
2014-Nov-14 21:33N 39°35' W 075°36'0 0.0
2014-Nov-14 20:33N 39°35' W 075°36'0 0.0
2014-Nov-14 19:33N 39°35' W 075°36'0 0.0
2014-Nov-14 18:33N 39°35' W 075°36'0 0.0
2014-Nov-14 17:33N 39°35' W 075°36'0 0.0
2014-Nov-14 16:33N 39°35' W 075°36'0 0.0
2014-Nov-14 15:33N 39°35' W 075°36'0 0.0
2014-Nov-14 14:33N 39°35' W 075°36'0 0.0
2014-Nov-14 12:33N 39°35' W 075°36'0 0.0
2014-Nov-14 11:33N 39°35' W 075°36'0 0.0
2014-Nov-14 10:33N 39°35' W 075°36'0 0.0
2014-Nov-14 09:33N 39°35' W 075°36'0 0.0
2014-Nov-14 08:33N 39°35' W 075°36'0 0.0
2014-Nov-14 07:33N 39°35' W 075°36'0 0.0
2014-Nov-14 06:33N 39°35' W 075°36'0 0.0
2014-Nov-14 05:33N 39°35' W 075°36'0 0.0
2014-Nov-14 04:33N 39°35' W 075°36'0 0.0
2014-Nov-14 03:33N 39°35' W 075°36'0 0.0
2014-Nov-14 02:33N 39°35' W 075°36'0 0.0
2014-Nov-14 01:33N 39°35' W 075°36'0 0.0
2014-Nov-14 00:33N 39°35' W 075°36'0 0.0
2014-Nov-13 23:33N 39°35' W 075°36'0 0.0
2014-Nov-13 22:33N 39°35' W 075°36'0 0.0
2014-Nov-13 21:33N 39°35' W 075°36'0 0.0
2014-Nov-13 20:33N 39°35' W 075°36'0 0.0
2014-Nov-13 19:33N 39°35' W 075°36'0 0.0
2014-Nov-13 18:33N 39°35' W 075°36'0 0.0
2014-Nov-13 17:33N 39°35' W 075°36'0 0.0
2014-Nov-13 16:33N 39°35' W 075°36'0 0.0
2014-Nov-13 15:33N 39°35' W 075°36'0 0.0
2014-Nov-13 14:31N 39°35' W 075°36'0 0.0
2014-Nov-13 13:33N 39°35' W 075°36'0 0.0
2014-Nov-13 12:33N 39°35' W 075°36'0 0.0
2014-Nov-13 11:33N 39°35' W 075°36'0 0.0
2014-Nov-13 10:33N 39°35' W 075°36'0 0.0
2014-Nov-13 09:33N 39°35' W 075°36'0 0.0
2014-Nov-13 08:33N 39°35' W 075°36'0 0.0
2014-Nov-13 07:30N 39°35' W 075°36'0 0.0
2014-Nov-13 06:33N 39°35' W 075°36'0 0.0
2014-Nov-13 05:33N 39°35' W 075°36'0 0.0
2014-Nov-13 04:33N 39°35' W 075°36'0 0.0
2014-Nov-13 03:30N 39°35' W 075°36'0 0.0
2014-Nov-13 02:33N 39°35' W 075°36'0 0.0
2014-Nov-13 01:30N 39°35' W 075°36'0 0.0
2014-Nov-13 00:33N 39°35' W 075°36'0 0.0
2014-Nov-12 23:33N 39°35' W 075°36'0 0.0
2014-Nov-12 22:33N 39°35' W 075°36'0 0.0
2014-Nov-12 21:33N 39°35' W 075°36'4 4.1
2014-Nov-12 20:33N 39°32' W 075°33'7 6.6
2014-Nov-12 19:33N 39°25' W 075°31'1616.4
2014-Nov-12 18:34N 39°13' W 075°17'19 3.0
2014-Nov-12 12:12N 38°55' W 075°08'0 0.3
2014-Nov-12 11:33N 38°55' W 075°08'0 0.0
2014-Nov-12 10:33N 38°55' W 075°08'0 0.0
2014-Nov-12 09:27N 38°55' W 075°08'0 0.0
2014-Nov-12 08:33N 38°55' W 075°08'0 0.0
2014-Nov-12 07:33N 38°55' W 075°08'0 0.2
2014-Nov-12 06:33N 38°55' W 075°08'0 0.0
2014-Nov-12 05:27N 38°55' W 075°08'0 0.0
2014-Nov-12 04:33N 38°55' W 075°08'0 0.0
2014-Nov-12 03:33N 38°55' W 075°08'0 0.0
2014-Nov-12 02:33N 38°55' W 075°08'0 0.0
2014-Nov-12 01:33N 38°55' W 075°08'0 0.0
2014-Nov-12 00:33N 38°55' W 075°08'0 0.2
2014-Nov-11 23:33N 38°55' W 075°08'0 0.0
2014-Nov-11 22:33N 38°55' W 075°08'0 0.0
2014-Nov-11 21:33N 38°55' W 075°08'0 0.0
2014-Nov-11 18:33N 38°55' W 075°08'  

Dump ship's entire track history